Time;durP1;ratioP1;P1;durP2;ratioP2;P2;SDS_P1;SDS_P2;PMS_P1;PMS_P2;Temp;Humidity;BMP_temperature;BMP_pressure;BME280_temperature;BME280_humidity;BME280_pressure;Samples;Min_cycle;Max_cycle;Signal;HPM_P1;HPM_P2
2021/11/26 00:00:33;;;;;;;40.80;16.10;;;4.90;99.90;;;;;;5022644;28;20029;-67
2021/11/26 00:02:58;;;;;;;44.42;16.73;;;4.90;99.90;;;;;;5022646;28;20826;-66
2021/11/26 00:05:24;;;;;;;37.05;15.45;;;5.00;99.90;;;;;;5023124;28;20059;-65
2021/11/26 00:07:49;;;;;;;39.97;16.27;;;5.00;99.90;;;;;;5022595;28;20033;-67
2021/11/26 00:10:15;;;;;;;45.97;16.25;;;5.00;99.90;;;;;;5023142;28;20022;-67
2021/11/26 00:12:49;;;;;;;36.38;15.43;;;5.00;99.90;;;;;;5023218;28;20850;-66
2021/11/26 00:17:51;;;;;;;38.97;15.50;;;5.00;99.90;;;;;;5020134;28;20563;-67
2021/11/26 00:20:16;;;;;;;40.63;15.63;;;5.00;99.90;;;;;;5022712;28;20033;-66
2021/11/26 00:22:42;;;;;;;39.75;15.23;;;5.00;99.90;;;;;;5022217;28;20033;-66
2021/11/26 00:25:08;;;;;;;36.05;14.68;;;5.10;99.90;;;;;;5022564;28;20592;-66
2021/11/26 00:27:33;;;;;;;41.03;16.15;;;5.00;99.90;;;;;;5004665;28;20523;-66
2021/11/26 00:29:59;;;;;;;38.50;14.63;;;5.00;99.90;;;;;;5022129;28;20057;-66
2021/11/26 00:32:24;;;;;;;35.55;15.05;;;5.00;99.90;;;;;;5022441;28;20022;-66
2021/11/26 00:34:50;;;;;;;42.38;15.65;;;5.10;99.90;;;;;;5022165;28;20034;-66
2021/11/26 00:37:16;;;;;;;36.30;15.73;;;5.10;99.90;;;;;;5022317;28;20077;-66
2021/11/26 00:39:41;;;;;;;32.80;14.45;;;5.10;99.90;;;;;;5022471;28;20031;-66
2021/11/26 00:42:07;;;;;;;41.60;14.85;;;5.10;99.90;;;;;;5021778;28;20160;-66
2021/11/26 00:44:32;;;;;;;36.03;14.18;;;5.00;99.90;;;;;;5021127;28;20037;-66
2021/11/26 00:46:58;;;;;;;33.58;14.00;;;5.10;99.90;;;;;;5020722;28;20034;-66
2021/11/26 00:49:24;;;;;;;33.35;13.93;;;5.10;99.90;;;;;;5021270;28;20025;-66
2021/11/26 00:51:49;;;;;;;32.42;14.15;;;5.10;99.90;;;;;;5021162;28;20037;-66
2021/11/26 00:54:15;;;;;;;36.45;14.07;;;5.10;99.90;;;;;;5022107;28;20033;-66
2021/11/26 00:56:40;;;;;;;33.45;14.10;;;5.10;99.90;;;;;;5004292;28;20043;-66
2021/11/26 00:59:06;;;;;;;34.40;14.38;;;5.10;99.90;;;;;;5021868;28;20047;-66
2021/11/26 01:01:31;;;;;;;35.05;14.50;;;5.20;99.90;;;;;;5022255;28;20029;-66
2021/11/26 01:03:57;;;;;;;32.53;13.50;;;5.20;99.90;;;;;;5021539;28;20045;-66
2021/11/26 01:06:23;;;;;;;39.85;15.05;;;5.10;99.90;;;;;;5021939;28;20025;-66
2021/11/26 01:08:48;;;;;;;43.17;16.83;;;5.10;99.90;;;;;;5022152;28;20140;-66
2021/11/26 01:11:14;;;;;;;37.72;15.55;;;5.10;99.90;;;;;;5022132;28;20906;-67
2021/11/26 01:13:39;;;;;;;46.97;17.85;;;5.10;99.90;;;;;;5021451;28;20210;-66
2021/11/26 01:16:05;;;;;;;48.53;20.27;;;6.30;99.90;;;;;;5022301;28;20029;-66
2021/11/26 01:18:31;;;;;;;39.05;15.93;;;5.20;99.90;;;;;;5022208;28;20964;-66
2021/11/26 01:20:56;;;;;;;35.00;14.80;;;5.20;99.90;;;;;;5020866;28;20036;-66
2021/11/26 01:23:24;;;;;;;42.22;17.98;;;5.20;99.90;;;;;;5024437;28;20063;-66
2021/11/26 01:25:50;;;;;;;37.05;16.02;;;5.20;99.90;;;;;;5020037;28;20049;-66
2021/11/26 01:28:15;;;;;;;42.05;15.40;;;5.10;99.90;;;;;;5022038;28;20538;-66
2021/11/26 01:30:46;;;;;;;39.88;18.20;;;5.10;99.90;;;;;;5022589;28;20545;-68
2021/11/26 01:33:11;;;;;;;45.92;17.88;;;5.10;99.90;;;;;;5021621;28;20037;-69
2021/11/26 01:35:37;;;;;;;44.22;18.23;;;5.10;99.90;;;;;;5021831;28;20029;-70
2021/11/26 01:38:04;;;;;;;39.00;15.38;;;5.10;99.90;;;;;;5022409;28;20707;-70
2021/11/26 01:40:30;;;;;;;41.75;18.65;;;5.30;99.90;;;;;;5022558;28;20095;-70
2021/11/26 01:42:56;;;;;;;47.78;19.27;;;5.10;99.90;;;;;;5021763;28;20030;-70
2021/11/26 01:45:22;;;;;;;46.42;19.15;;;;;;;;;;5022571;28;20032;-70
2021/11/26 01:47:48;;;;;;;40.70;17.88;;;;;;;;;;4985111;28;20132;-69
2021/11/26 01:50:13;;;;;;;52.47;20.65;;;5.10;99.90;;;;;;5022059;28;20121;-69
2021/11/26 01:52:39;;;;;;;41.42;17.00;;;5.10;99.90;;;;;;5020422;28;20144;-69
2021/11/26 01:55:04;;;;;;;36.35;15.02;;;5.10;99.90;;;;;;5025036;28;20071;-70
2021/11/26 01:57:30;;;;;;;40.88;16.55;;;5.10;99.90;;;;;;5025726;28;20104;-69
2021/11/26 01:59:56;;;;;;;43.28;16.25;;;5.10;99.90;;;;;;5026080;28;20025;-69
2021/11/26 02:02:21;;;;;;;35.75;14.95;;;5.10;99.90;;;;;;5025502;28;20471;-69
2021/11/26 02:04:47;;;;;;;40.28;15.15;;;5.10;99.90;;;;;;5025238;28;20652;-70
2021/11/26 02:07:12;;;;;;;53.17;21.30;;;5.10;99.90;;;;;;5025922;28;20044;-69
2021/11/26 02:09:38;;;;;;;41.45;16.98;;;5.10;99.90;;;;;;5026117;28;20051;-69
2021/11/26 02:12:03;;;;;;;37.53;14.77;;;6.00;99.90;;;;;;5024020;28;20037;-69
2021/11/26 02:14:30;;;;;;;38.85;15.82;;;5.20;99.90;;;;;;5025236;28;20056;-69
2021/11/26 02:16:56;;;;;;;46.40;15.60;;;5.20;99.90;;;;;;5031344;28;20091;-69
2021/11/26 02:19:21;;;;;;;50.80;15.77;;;5.20;99.90;;;;;;5025534;28;20029;-69
2021/11/26 02:21:47;;;;;;;39.50;15.80;;;5.20;99.90;;;;;;5024844;28;20068;-70
2021/11/26 02:24:12;;;;;;;38.15;15.30;;;5.20;99.90;;;;;;5025102;28;20033;-69
2021/11/26 02:26:38;;;;;;;40.45;14.52;;;5.30;99.90;;;;;;5025431;28;20064;-69
2021/11/26 02:29:04;;;;;;;35.42;14.68;;;5.20;99.90;;;;;;5024958;28;20060;-70
2021/11/26 02:31:30;;;;;;;41.00;15.07;;;;;;;;;;5025363;28;20059;-70
2021/11/26 02:33:55;;;;;;;36.78;15.63;;;5.30;99.90;;;;;;5025256;28;20591;-70
2021/11/26 02:36:21;;;;;;;31.42;14.80;;;5.20;99.90;;;;;;5025150;28;20136;-70
2021/11/26 02:38:46;;;;;;;39.38;15.10;;;5.20;99.90;;;;;;5024155;28;20061;-71
2021/11/26 02:41:12;;;;;;;37.70;15.60;;;5.20;99.90;;;;;;5007471;28;20080;-70
2021/11/26 02:43:37;;;;;;;42.17;14.70;;;5.20;99.90;;;;;;5024441;28;20112;-71
2021/11/26 02:46:03;;;;;;;37.60;14.73;;;5.20;99.90;;;;;;5023536;28;20022;-70
2021/11/26 02:48:28;;;;;;;38.65;15.20;;;5.10;99.90;;;;;;5024993;28;20048;-70
2021/11/26 02:50:54;;;;;;;45.50;16.75;;;5.20;99.90;;;;;;5025819;28;20742;-69
2021/11/26 02:53:20;;;;;;;43.05;16.52;;;5.20;99.90;;;;;;5025670;28;20875;-70
2021/11/26 02:55:45;;;;;;;43.88;16.15;;;5.20;99.90;;;;;;5026096;28;20041;-70
2021/11/26 02:58:11;;;;;;;39.15;15.57;;;5.20;99.90;;;;;;5026010;28;20218;-71
2021/11/26 03:00:36;;;;;;;45.78;15.90;;;5.20;99.90;;;;;;5025352;28;20045;-70
2021/11/26 03:03:02;;;;;;;38.90;15.70;;;5.20;99.90;;;;;;5025502;28;20123;-71
2021/11/26 03:05:27;;;;;;;43.28;16.08;;;5.20;99.90;;;;;;5023950;28;20033;-70
2021/11/26 03:07:53;;;;;;;41.15;16.13;;;5.20;99.90;;;;;;5023799;28;20747;-71
2021/11/26 03:10:19;;;;;;;45.53;16.27;;;5.20;99.90;;;;;;5025574;28;20025;-71
2021/11/26 03:12:44;;;;;;;42.38;16.05;;;5.20;99.90;;;;;;5024870;28;20114;-70
2021/11/26 03:15:10;;;;;;;45.20;15.85;;;5.20;99.90;;;;;;5025361;28;20451;-70
2021/11/26 03:17:35;;;;;;;39.28;15.65;;;5.20;99.90;;;;;;5025896;28;20060;-71
2021/11/26 03:20:01;;;;;;;35.72;14.77;;;5.20;99.90;;;;;;5025356;28;20041;-71
2021/11/26 03:22:26;;;;;;;34.60;14.50;;;5.20;99.90;;;;;;5025419;28;20022;-70
2021/11/26 03:24:52;;;;;;;37.17;15.13;;;5.20;99.90;;;;;;5025414;28;20034;-70
2021/11/26 03:27:18;;;;;;;33.92;13.45;;;5.20;99.90;;;;;;5022465;28;20516;-70
2021/11/26 03:29:43;;;;;;;41.97;14.93;;;5.20;99.90;;;;;;5023264;28;20029;-70
2021/11/26 03:32:09;;;;;;;31.00;13.00;;;5.30;99.90;;;;;;5024952;28;20052;-70
2021/11/26 03:34:34;;;;;;;34.63;13.73;;;5.30;99.90;;;;;;5023334;28;20040;-71
2021/11/26 03:37:00;;;;;;;34.17;13.48;;;5.20;99.90;;;;;;5024247;28;20048;-70
2021/11/26 03:39:26;;;;;;;39.22;13.90;;;5.20;99.90;;;;;;5025103;28;20033;-71
2021/11/26 03:41:52;;;;;;;33.80;13.90;;;5.20;99.90;;;;;;5024654;28;20033;-70
2021/11/26 03:44:18;;;;;;;35.40;13.30;;;5.20;99.90;;;;;;5024455;28;20766;-70
2021/11/26 03:46:43;;;;;;;36.75;13.15;;;5.20;99.90;;;;;;5021863;28;20052;-70
2021/11/26 03:49:09;;;;;;;31.17;12.85;;;5.20;99.90;;;;;;5024556;28;20548;-71
2021/11/26 03:51:35;;;;;;;33.97;12.73;;;5.20;99.90;;;;;;5024784;28;20489;-70
2021/11/26 03:54:00;;;;;;;30.40;12.98;;;5.20;99.90;;;;;;5024433;28;20068;-71
2021/11/26 03:56:26;;;;;;;40.78;14.07;;;5.20;99.90;;;;;;5024747;28;20132;-70
2021/11/26 03:58:51;;;;;;;33.50;11.82;;;5.20;99.90;;;;;;5023246;28;20057;-70
2021/11/26 04:01:17;;;;;;;31.17;11.95;;;5.20;99.90;;;;;;5025006;28;20493;-70
2021/11/26 04:03:42;;;;;;;30.38;11.15;;;5.20;99.90;;;;;;5024185;28;20507;-71
2021/11/26 04:06:08;;;;;;;34.05;11.48;;;5.30;99.90;;;;;;5025149;28;20452;-70
2021/11/26 04:08:34;;;;;;;37.63;14.02;;;5.20;99.90;;;;;;5006911;28;20551;-70
2021/11/26 04:10:59;;;;;;;39.28;13.18;;;5.20;99.90;;;;;;5024053;28;20028;-70
2021/11/26 04:13:25;;;;;;;33.25;12.45;;;5.30;99.90;;;;;;5029004;28;20140;-70
2021/11/26 04:15:51;;;;;;;36.80;15.18;;;5.30;99.90;;;;;;5024678;28;20041;-70
2021/11/26 04:18:17;;;;;;;34.15;13.35;;;5.20;99.90;;;;;;5025219;28;20396;-70
2021/11/26 04:20:43;;;;;;;38.20;13.10;;;5.20;99.90;;;;;;5024248;28;20044;-70
2021/11/26 04:23:09;;;;;;;30.25;13.10;;;5.20;99.90;;;;;;5020272;28;20111;-70
2021/11/26 04:25:35;;;;;;;42.75;14.52;;;5.20;99.90;;;;;;5024227;28;20492;-70
2021/11/26 04:28:00;;;;;;;37.00;14.07;;;5.20;99.90;;;;;;5024189;28;20409;-70
2021/11/26 04:30:26;;;;;;;39.70;14.07;;;5.30;99.90;;;;;;5024052;28;20025;-70
2021/11/26 04:32:51;;;;;;;35.95;14.95;;;5.30;99.90;;;;;;5023517;28;20037;-70
2021/11/26 04:35:17;;;;;;;37.13;14.43;;;5.20;99.90;;;;;;5024198;28;20184;-70
2021/11/26 04:37:42;;;;;;;36.88;14.45;;;5.20;99.90;;;;;;5023867;28;20044;-70
2021/11/26 04:40:08;;;;;;;29.70;14.48;;;5.10;99.90;;;;;;5023704;28;20037;-70
2021/11/26 04:42:34;;;;;;;41.30;13.57;;;5.10;99.90;;;;;;5020291;28;20732;-70
2021/11/26 04:45:00;;;;;;;29.02;12.73;;;5.10;99.90;;;;;;5024387;28;20021;-70
2021/11/26 04:47:25;;;;;;;34.53;12.40;;;5.10;99.90;;;;;;5028783;28;20033;-70
2021/11/26 04:49:51;;;;;;;27.67;11.65;;;5.00;99.90;;;;;;5005831;28;20029;-70
2021/11/26 04:52:16;;;;;;;38.70;13.15;;;5.00;99.90;;;;;;5024127;28;20589;-70
2021/11/26 04:54:42;;;;;;;40.30;12.82;;;5.10;99.90;;;;;;5023672;28;20037;-70
2021/11/26 04:57:07;;;;;;;30.75;12.75;;;4.70;99.90;;;;;;5023410;28;20025;-70
2021/11/26 04:59:33;;;;;;;36.53;13.43;;;;;;;;;;5028651;28;20376;-70
2021/11/26 05:01:59;;;;;;;30.63;12.55;;;;;;;;;;5023042;28;20072;-70
2021/11/26 05:04:26;;;;;;;38.55;13.02;;;;;;;;;;5022814;28;20668;-70
2021/11/26 05:06:51;;;;;;;33.13;12.63;;;5.50;99.90;;;;;;5015783;28;20029;-70
2021/11/26 05:09:17;;;;;;;33.35;12.80;;;5.10;99.90;;;;;;5023670;28;20036;-70
2021/11/26 05:11:43;;;;;;;34.13;13.05;;;5.10;99.90;;;;;;5022993;28;20044;-69
2021/11/26 05:14:09;;;;;;;28.60;12.32;;;5.10;99.90;;;;;;5023499;28;20091;-70
2021/11/26 05:16:34;;;;;;;31.45;11.80;;;5.10;99.90;;;;;;5022072;28;20025;-70
2021/11/26 05:19:00;;;;;;;36.70;13.40;;;;;;;;;;5021403;28;20037;-70
2021/11/26 05:21:26;;;;;;;28.70;11.50;;;5.10;99.90;;;;;;5023463;28;20071;-69
2021/11/26 05:23:52;;;;;;;35.67;12.20;;;5.10;99.90;;;;;;5023063;28;20132;-69
2021/11/26 05:26:17;;;;;;;30.70;12.15;;;5.00;99.90;;;;;;5023033;28;20516;-69
2021/11/26 05:28:43;;;;;;;34.63;11.07;;;5.00;99.90;;;;;;5021186;28;20136;-69
2021/11/26 05:31:08;;;;;;;28.80;11.68;;;5.00;99.90;;;;;;5029729;28;20021;-69
2021/11/26 05:33:34;;;;;;;30.95;10.63;;;5.00;99.90;;;;;;5029433;28;20120;-70
2021/11/26 05:35:59;;;;;;;26.73;10.68;;;5.00;99.90;;;;;;5029895;28;20040;-70
2021/11/26 05:38:25;;;;;;;31.13;11.82;;;5.10;99.90;;;;;;5030021;28;20036;-70
2021/11/26 05:40:51;;;;;;;33.55;11.63;;;5.10;99.90;;;;;;5029507;28;20032;-70
2021/11/26 05:43:16;;;;;;;31.48;10.77;;;5.10;99.90;;;;;;5029388;28;20623;-69
2021/11/26 05:45:42;;;;;;;30.05;11.02;;;5.00;99.90;;;;;;5029721;28;20090;-70
2021/11/26 05:48:08;;;;;;;31.45;11.77;;;5.00;99.90;;;;;;5029304;28;20501;-70
2021/11/26 05:50:33;;;;;;;32.55;11.23;;;5.00;99.90;;;;;;5029660;28;20471;-70
2021/11/26 05:52:59;;;;;;;31.95;10.70;;;5.00;99.90;;;;;;5029589;28;20037;-70
2021/11/26 05:55:24;;;;;;;34.20;11.65;;;5.00;99.90;;;;;;5029289;28;20029;-70
2021/11/26 05:57:51;;;;;;;24.15;10.43;;;5.00;99.90;;;;;;5029733;28;20064;-70
2021/11/26 06:00:16;;;;;;;32.35;11.68;;;5.00;99.90;;;;;;5029793;28;20044;-69
2021/11/26 06:02:42;;;;;;;32.65;11.50;;;5.00;99.90;;;;;;5029145;28;20037;-69
2021/11/26 06:05:08;;;;;;;37.00;11.50;;;4.90;99.90;;;;;;5029478;28;20018;-70
2021/11/26 06:07:34;;;;;;;23.70;10.38;;;5.00;99.90;;;;;;5029481;28;20051;-69
2021/11/26 06:10:00;;;;;;;28.95;10.48;;;5.00;99.90;;;;;;5029082;28;20037;-70
2021/11/26 06:12:25;;;;;;;31.85;10.90;;;4.90;99.90;;;;;;5029387;28;20423;-70
2021/11/26 06:14:54;;;;;;;38.17;11.27;;;4.90;99.90;;;;;;5029134;28;20037;-69
2021/11/26 06:17:19;;;;;;;26.30;10.70;;;4.90;99.90;;;;;;5029489;28;20140;-70
2021/11/26 06:19:45;;;;;;;29.35;11.68;;;4.90;99.90;;;;;;5029744;28;20179;-69
2021/11/26 06:22:10;;;;;;;32.10;10.40;;;4.90;99.90;;;;;;5029738;28;20531;-70
2021/11/26 06:24:36;;;;;;;28.63;10.82;;;4.90;99.90;;;;;;5029073;28;20034;-70
2021/11/26 06:27:02;;;;;;;31.95;12.05;;;4.90;99.90;;;;;;5019916;28;20041;-70
2021/11/26 06:29:27;;;;;;;31.55;10.57;;;5.00;99.90;;;;;;5029428;28;20041;-69
2021/11/26 06:31:53;;;;;;;42.85;12.43;;;5.00;99.90;;;;;;5029051;28;20021;-70
2021/11/26 06:34:18;;;;;;;29.20;10.68;;;4.90;99.90;;;;;;5029047;28;20041;-70
2021/11/26 06:36:44;;;;;;;26.40;9.80;;;4.90;99.90;;;;;;5029531;28;20140;-70
2021/11/26 06:39:09;;;;;;;32.75;10.35;;;4.80;99.90;;;;;;5031527;28;20064;-70
2021/11/26 06:41:35;;;;;;;35.00;10.10;;;4.90;99.90;;;;;;5027120;28;20056;-70
2021/11/26 06:44:01;;;;;;;30.52;9.70;;;;;;;;;;5025899;28;20493;-69
2021/11/26 06:46:27;;;;;;;26.23;9.63;;;5.00;99.90;;;;;;5025433;28;20116;-69
2021/11/26 06:48:53;;;;;;;26.50;9.50;;;;;;;;;;5026015;28;20148;-70
2021/11/26 06:51:18;;;;;;;26.13;9.38;;;5.20;99.90;;;;;;5026029;28;20642;-70
2021/11/26 06:53:44;;;;;;;32.40;9.38;;;5.20;99.90;;;;;;5025511;28;20112;-69
2021/11/26 06:56:09;;;;;;;24.95;9.35;;;4.80;99.90;;;;;;5007936;28;20132;-71
2021/11/26 06:58:35;;;;;;;30.98;8.32;;;4.80;99.90;;;;;;5025965;28;20067;-69
2021/11/26 07:01:01;;;;;;;28.08;8.75;;;4.90;99.90;;;;;;5025463;28;20045;-70
2021/11/26 07:03:26;;;;;;;26.75;8.68;;;4.90;99.90;;;;;;5025933;28;20035;-70
2021/11/26 07:05:52;;;;;;;22.45;8.90;;;4.90;99.90;;;;;;5026308;28;20803;-70
2021/11/26 07:08:18;;;;;;;25.55;9.63;;;4.90;99.90;;;;;;5026003;28;20029;-69
2021/11/26 07:10:44;;;;;;;22.80;7.70;;;5.00;99.90;;;;;;5025773;28;20140;-70
2021/11/26 07:13:10;;;;;;;19.27;8.00;;;4.90;99.90;;;;;;5025648;28;20116;-70
2021/11/26 07:15:35;;;;;;;23.33;8.43;;;4.90;99.90;;;;;;5025205;28;20104;-69
2021/11/26 07:18:01;;;;;;;23.17;8.45;;;4.90;99.90;;;;;;5025449;28;20040;-69
2021/11/26 07:20:26;;;;;;;29.95;8.98;;;5.00;99.90;;;;;;5024883;28;20504;-70
2021/11/26 07:22:52;;;;;;;22.20;9.20;;;4.90;99.90;;;;;;5024773;28;20465;-70
2021/11/26 07:25:17;;;;;;;21.70;9.32;;;5.00;99.90;;;;;;5025046;28;20022;-69
2021/11/26 07:27:43;;;;;;;25.50;9.30;;;5.00;99.90;;;;;;5025313;28;20428;-70
2021/11/26 07:30:09;;;;;;;26.92;8.35;;;4.90;99.90;;;;;;5024207;28;20033;-70
2021/11/26 07:32:34;;;;;;;26.13;9.68;;;5.00;99.90;;;;;;5024519;28;20060;-70
2021/11/26 07:35:00;;;;;;;24.00;8.93;;;5.00;99.90;;;;;;5024868;28;20115;-69
2021/11/26 07:37:25;;;;;;;25.30;9.05;;;5.00;99.90;;;;;;5025075;28;20418;-69
2021/11/26 07:39:51;;;;;;;33.55;9.57;;;5.10;99.90;;;;;;5024447;28;20843;-69
2021/11/26 07:42:17;;;;;;;25.13;8.60;;;5.20;99.90;;;;;;5025046;28;20610;-69
2021/11/26 07:44:42;;;;;;;25.42;8.82;;;5.20;99.90;;;;;;5024804;28;20076;-69
2021/11/26 07:47:11;;;;;;;21.02;9.70;;;5.20;99.90;;;;;;5008628;28;20138;-70
2021/11/26 07:49:37;;;;;;;40.38;13.00;;;5.20;99.90;;;;;;5024273;28;20040;-71
2021/11/26 07:52:02;;;;;;;27.88;9.82;;;5.20;99.90;;;;;;5024004;28;20166;-70
2021/11/26 07:54:28;;;;;;;30.42;10.10;;;5.20;99.90;;;;;;5006186;28;20595;-69
2021/11/26 07:56:53;;;;;;;31.05;10.25;;;5.20;99.90;;;;;;5024573;28;20033;-69
2021/11/26 07:59:19;;;;;;;27.58;9.77;;;5.20;99.90;;;;;;5015197;28;20033;-70
2021/11/26 08:01:45;;;;;;;26.50;9.93;;;5.20;99.90;;;;;;5003063;28;20038;-70
2021/11/26 08:04:10;;;;;;;26.00;10.95;;;5.30;99.90;;;;;;5023984;28;20026;-70
2021/11/26 08:06:36;;;;;;;24.60;9.90;;;;;;;;;;5024130;28;20089;-70
2021/11/26 08:09:06;;;;;;;23.42;10.48;;;;;;;;;;5023840;28;20044;-68
2021/11/26 08:11:31;;;;;;;23.67;9.10;;;5.50;99.90;;;;;;5006121;28;20100;-70
2021/11/26 08:13:57;;;;;;;21.83;9.05;;;5.80;99.90;;;;;;5005970;28;20489;-70
2021/11/26 08:16:22;;;;;;;25.95;9.68;;;5.70;99.90;;;;;;5023524;28;20041;-70
2021/11/26 08:18:48;;;;;;;33.15;10.43;;;5.30;99.90;;;;;;5023855;28;20033;-70
2021/11/26 08:21:14;;;;;;;22.70;10.48;;;5.30;99.90;;;;;;5023896;28;20560;-69
2021/11/26 08:23:39;;;;;;;21.77;9.88;;;6.10;99.90;;;;;;5023184;28;20029;-70
2021/11/26 08:26:05;;;;;;;23.17;9.88;;;6.00;99.90;;;;;;5023930;28;20148;-70
2021/11/26 08:28:30;;;;;;;26.17;10.02;;;5.70;99.90;;;;;;5024032;28;20500;-69
2021/11/26 08:30:56;;;;;;;21.88;9.77;;;5.60;99.90;;;;;;5023654;28;20043;-71
2021/11/26 08:33:24;;;;;;;24.13;11.00;;;5.70;99.90;;;;;;5017239;28;20173;-70
2021/11/26 08:35:50;;;;;;;30.67;10.80;;;;;;;;;;5020528;28;20546;-71
2021/11/26 08:38:16;;;;;;;31.73;11.40;;;5.90;99.90;;;;;;5001672;28;20938;-70
2021/11/26 08:40:42;;;;;;;31.25;13.70;;;;;;;;;;5016232;28;20026;-71
2021/11/26 08:43:08;;;;;;;57.40;21.38;;;;;;;;;;5022512;28;20079;-69
2021/11/26 08:45:34;;;;;;;45.05;17.52;;;;;;;;;;5021620;28;20106;-69
2021/11/26 08:48:00;;;;;;;46.03;17.10;;;;;;;;;;5022040;28;20025;-68
2021/11/26 08:50:27;;;;;;;54.50;21.33;;;;;;;;;;5018224;28;20121;-68
2021/11/26 08:52:53;;;;;;;32.58;10.95;;;;;;;;;;5018983;28;20053;-69
2021/11/26 08:55:19;;;;;;;29.45;10.82;;;;;;;;;;5005802;28;20031;-69
2021/11/26 08:57:55;;;;;;;23.08;9.30;;;;;;;;;;5022562;28;20804;-69
2021/11/26 09:00:21;;;;;;;20.30;9.45;;;;;;;;;;5004439;28;20032;-68
2021/11/26 09:02:46;;;;;;;26.85;10.23;;;5.90;99.90;;;;;;5019972;28;20038;-68
2021/11/26 09:05:12;;;;;;;92.53;32.53;;;6.00;99.90;;;;;;5003974;28;20083;-69
2021/11/26 09:07:38;;;;;;;23.80;11.48;;;5.90;99.90;;;;;;5022167;28;20106;-70
2021/11/26 09:10:03;;;;;;;24.65;11.10;;;5.80;99.90;;;;;;5022863;28;20563;-70
2021/11/26 09:12:30;;;;;;;27.92;11.10;;;5.60;99.90;;;;;;5019262;28;20862;-70
2021/11/26 09:14:55;;;;;;;27.48;11.15;;;5.50;99.90;;;;;;5016853;28;20686;-68
2021/11/26 09:17:21;;;;;;;24.13;11.23;;;5.60;99.90;;;;;;5021186;28;20087;-69
2021/11/26 09:19:47;;;;;;;70.80;21.42;;;5.80;99.90;;;;;;5009741;28;20037;-69
2021/11/26 09:22:12;;;;;;;37.47;14.90;;;6.00;99.90;;;;;;5021978;28;20505;-68
2021/11/26 09:24:38;;;;;;;29.55;12.27;;;6.10;99.90;;;;;;5016194;28;20068;-69
2021/11/26 09:27:03;;;;;;;25.98;10.32;;;6.20;99.90;;;;;;5018767;28;20025;-68
2021/11/26 09:29:29;;;;;;;26.05;12.10;;;6.20;99.90;;;;;;5003825;28;20430;-69
2021/11/26 09:31:55;;;;;;;25.70;10.70;;;6.20;99.90;;;;;;5019841;28;20089;-69
2021/11/26 09:34:20;;;;;;;25.90;10.38;;;6.50;99.90;;;;;;4997286;28;20041;-68
2021/11/26 09:36:46;;;;;;;26.95;10.23;;;;;;;;;;5020662;28;20421;-68
2021/11/26 09:39:12;;;;;;;26.58;9.77;;;6.20;99.90;;;;;;5022062;28;20579;-69
2021/11/26 09:41:37;;;;;;;26.98;12.02;;;6.20;99.90;;;;;;5001147;28;20041;-69
2021/11/26 09:44:03;;;;;;;26.83;10.10;;;7.00;99.90;;;;;;5019692;28;20035;-69
2021/11/26 09:46:32;;;;;;;30.15;11.40;;;;;;;;;;5021080;28;20045;-69
2021/11/26 09:48:58;;;;;;;26.95;9.93;;;;;;;;;;5021061;28;20041;-69
2021/11/26 09:51:24;;;;;;;40.65;16.77;;;;;;;;;;5021848;28;20049;-71
2021/11/26 09:53:50;;;;;;;38.70;13.93;;;6.70;99.90;;;;;;5018784;28;20061;-69
2021/11/26 09:56:15;;;;;;;24.70;10.73;;;6.60;99.90;;;;;;5022414;28;20544;-68
2021/11/26 09:58:41;;;;;;;23.80;9.20;;;;;;;;;;5022046;28;20041;-69
2021/11/26 10:01:07;;;;;;;23.17;9.55;;;;;;;;;;5019863;28;20033;-69
2021/11/26 10:03:33;;;;;;;24.95;10.20;;;;;;;;;;5019759;28;20029;-69
2021/11/26 10:06:00;;;;;;;23.95;9.48;;;;;;;;;;5017330;28;20675;-69
2021/11/26 10:08:26;;;;;;;27.30;10.18;;;;;;;;;;5004006;28;20057;-68
2021/11/26 10:10:52;;;;;;;25.35;9.82;;;;;;;;;;5021558;28;20132;-69
2021/11/26 10:13:18;;;;;;;26.52;9.57;;;;;;;;;;5000822;28;20546;-69
2021/11/26 10:15:43;;;;;;;28.10;10.43;;;6.60;99.90;;;;;;5006002;28;20834;-68
2021/11/26 10:18:09;;;;;;;29.02;10.68;;;5.80;99.90;;;;;;5020621;28;20065;-69
2021/11/26 10:20:35;;;;;;;25.73;9.80;;;6.40;99.90;;;;;;5025406;28;20464;-69
2021/11/26 10:23:00;;;;;;;25.73;10.70;;;6.50;99.90;;;;;;5024776;28;20041;-69
2021/11/26 10:25:26;;;;;;;26.98;11.02;;;6.40;99.90;;;;;;5025609;28;20117;-69
2021/11/26 10:27:53;;;;;;;24.25;10.85;;;6.30;99.90;;;;;;5025151;28;20073;-69
2021/11/26 10:30:20;;;;;;;20.20;9.52;;;6.20;99.90;;;;;;5025129;28;20103;-69
2021/11/26 10:32:45;;;;;;;22.65;9.88;;;6.30;99.90;;;;;;5018830;28;20825;-69
2021/11/26 10:35:11;;;;;;;23.73;9.98;;;6.40;99.90;;;;;;5019386;28;20034;-69
2021/11/26 10:37:36;;;;;;;23.40;10.07;;;6.40;99.90;;;;;;5022663;28;20087;-71
2021/11/26 10:40:02;;;;;;;24.30;9.88;;;6.50;99.90;;;;;;5024446;28;20398;-71
2021/11/26 10:42:28;;;;;;;28.65;10.40;;;;;;;;;;5023882;28;20037;-69
2021/11/26 10:44:55;;;;;;;26.35;9.75;;;;;;;;;;5023467;28;20033;-69
2021/11/26 10:50:00;;;;;;;23.92;9.10;;;;;;;;;;5023842;28;20041;-69
2021/11/26 10:52:53;;;;;;;22.65;9.50;;;;;;;;;;5024210;28;20052;-71
2021/11/26 10:58:01;;;;;;;20.20;7.93;;;;;;;;;;5019573;28;20088;-69
2021/11/26 11:00:27;;;;;;;21.83;8.55;;;;;;;;;;5003765;28;20033;-70
2021/11/26 11:02:53;;;;;;;18.80;8.15;;;7.10;99.90;;;;;;5022937;28;20033;-70
2021/11/26 11:05:19;;;;;;;25.73;9.95;;;;;;;;;;4991608;28;20867;-70
2021/11/26 11:07:45;;;;;;;23.38;8.95;;;;;;;;;;5021096;28;20017;-65
2021/11/26 11:10:13;;;;;;;23.70;9.23;;;;;;;;;;4986074;28;20504;-65
2021/11/26 11:12:39;;;;;;;17.45;8.10;;;;;;;;;;5019390;28;20462;-65
2021/11/26 11:15:05;;;;;;;25.13;9.20;;;7.70;99.90;;;;;;4995847;28;20055;-65
2021/11/26 11:17:31;;;;;;;24.65;9.63;;;;;;;;;;4986973;28;20064;-66
2021/11/26 11:19:57;;;;;;;20.73;8.32;;;;;;;;;;5020684;28;20059;-65
2021/11/26 11:22:24;;;;;;;22.80;8.27;;;;;;;;;;5020933;28;20448;-65
2021/11/26 11:24:50;;;;;;;18.65;8.38;;;;;;;;;;5006256;28;20430;-65
2021/11/26 11:27:16;;;;;;;19.52;7.90;;;;;;;;;;5019094;28;20038;-65
2021/11/26 11:29:42;;;;;;;22.88;8.60;;;;;;;;;;5019082;28;20121;-65
2021/11/26 11:32:10;;;;;;;25.00;8.63;;;;;;;;;;5024264;28;20024;-65
2021/11/26 11:34:35;;;;;;;22.30;10.20;;;8.10;99.90;;;;;;5022921;28;20367;-65
2021/11/26 11:37:03;;;;;;;22.10;9.57;;;7.80;99.90;;;;;;5023959;28;20576;-65
2021/11/26 11:39:28;;;;;;;29.50;11.18;;;7.80;99.90;;;;;;5022255;28;20044;-65
2021/11/26 11:41:54;;;;;;;25.33;8.75;;;8.30;99.90;;;;;;5014551;28;20380;-65
2021/11/26 11:44:19;;;;;;;20.40;8.63;;;8.60;99.90;;;;;;5021720;28;20477;-65
2021/11/26 11:46:45;;;;;;;20.65;9.68;;;8.60;99.90;;;;;;5024410;28;20032;-65
2021/11/26 11:49:11;;;;;;;23.73;10.68;;;8.50;99.90;;;;;;5023135;28;20374;-65
2021/11/26 11:51:36;;;;;;;18.77;9.05;;;8.50;99.90;;;;;;5017924;28;20022;-65
2021/11/26 11:54:02;;;;;;;23.23;8.38;;;8.60;99.90;;;;;;5019037;28;20589;-65
2021/11/26 11:56:27;;;;;;;21.85;8.85;;;8.70;99.90;;;;;;5005671;28;20939;-65
2021/11/26 11:58:53;;;;;;;19.95;8.75;;;8.60;99.90;;;;;;5023831;28;20044;-65
2021/11/26 12:01:19;;;;;;;21.42;9.35;;;8.50;99.90;;;;;;5020118;28;20459;-65
2021/11/26 12:03:45;;;;;;;20.10;9.45;;;9.90;99.90;;;;;;5019190;28;20037;-65
2021/11/26 12:06:10;;;;;;;22.63;9.50;;;8.50;99.90;;;;;;5022114;28;20028;-65
2021/11/26 12:08:36;;;;;;;27.73;8.93;;;8.50;99.90;;;;;;5002743;28;20022;-65
2021/11/26 12:11:01;;;;;;;17.10;8.82;;;8.70;99.90;;;;;;5001588;28;20112;-65
2021/11/26 12:13:27;;;;;;;17.45;8.65;;;9.00;99.90;;;;;;5010031;28;20068;-66
2021/11/26 12:15:53;;;;;;;20.70;8.52;;;8.50;99.90;;;;;;5022013;28;20037;-66
2021/11/26 12:18:19;;;;;;;21.67;9.30;;;8.70;99.90;;;;;;5020998;28;20030;-66
2021/11/26 12:20:44;;;;;;;18.17;8.75;;;8.60;99.90;;;;;;5003357;28;20111;-66
2021/11/26 12:23:10;;;;;;;22.33;9.43;;;8.60;99.90;;;;;;5021521;28;20034;-66
2021/11/26 12:28:08;;;;;;;20.60;7.63;;;8.50;99.90;;;;;;5020486;28;20033;-65
2021/11/26 12:30:34;;;;;;;17.42;7.22;;;8.70;99.90;;;;;;5016301;28;20543;-65
2021/11/26 12:32:59;;;;;;;21.23;7.10;;;8.50;99.90;;;;;;5023259;28;20037;-66
2021/11/26 12:35:25;;;;;;;19.23;7.53;;;8.30;99.90;;;;;;5017419;28;20021;-66
2021/11/26 12:37:51;;;;;;;19.15;8.13;;;8.30;99.90;;;;;;4999958;28;20515;-65
2021/11/26 12:40:16;;;;;;;13.88;6.88;;;8.40;99.90;;;;;;5023212;28;20029;-64
2021/11/26 12:42:42;;;;;;;18.27;7.05;;;8.30;99.90;;;;;;5016751;28;20038;-65
2021/11/26 12:45:08;;;;;;;17.65;7.53;;;8.30;99.90;;;;;;5017878;28;20090;-66
2021/11/26 12:47:33;;;;;;;18.92;7.28;;;8.40;99.90;;;;;;5021091;28;20026;-66
2021/11/26 12:52:45;;;;;;;;;;;7.90;99.90;;;;;;4977955;28;20527;-65
2021/11/26 12:55:10;;;;;;;16.48;7.55;;;7.80;99.90;;;;;;5019528;28;19917;-65
2021/11/26 12:57:36;;;;;;;15.65;6.22;;;7.80;99.90;;;;;;5022625;28;20059;-66
2021/11/26 13:00:02;;;;;;;18.00;6.70;;;8.00;99.60;;;;;;5017748;28;20038;-66